sensor_id;sensor_type;location;lat;lon;timestamp;pressure;altitude;pressure_sealevel;temperature;humidity
79331;BME280;68797;49.782;19.054;2023-11-19T00:02:21;97656.91;;;0.46;99.51
79331;BME280;68797;49.782;19.054;2023-11-19T00:04:47;97657.78;;;0.48;100.00
79331;BME280;68797;49.782;19.054;2023-11-19T00:07:14;97657.69;;;0.41;100.00
79331;BME280;68797;49.782;19.054;2023-11-19T00:09:40;97656.03;;;0.46;100.00
79331;BME280;68797;49.782;19.054;2023-11-19T00:12:07;97663.84;;;0.46;100.00
79331;BME280;68797;49.782;19.054;2023-11-19T00:14:33;97661.19;;;0.44;100.00
79331;BME280;68797;49.782;19.054;2023-11-19T00:17:00;97650.56;;;0.29;100.00
79331;BME280;68797;49.782;19.054;2023-11-19T00:19:27;97635.78;;;0.31;100.00
79331;BME280;68797;49.782;19.054;2023-11-19T00:21:53;97647.91;;;0.27;100.00
79331;BME280;68797;49.782;19.054;2023-11-19T00:24:19;97641.69;;;0.19;100.00
79331;BME280;68797;49.782;19.054;2023-11-19T00:26:46;97634.88;;;0.29;100.00
79331;BME280;68797;49.782;19.054;2023-11-19T00:29:12;97627.88;;;0.25;100.00
79331;BME280;68797;49.782;19.054;2023-11-19T00:31:40;97633.81;;;0.15;100.00
79331;BME280;68797;49.782;19.054;2023-11-19T00:34:06;97629.31;;;0.05;100.00
79331;BME280;68797;49.782;19.054;2023-11-19T00:36:33;97635.59;;;0.17;100.00
79331;BME280;68797;49.782;19.054;2023-11-19T00:38:59;97639.19;;;0.25;100.00
79331;BME280;68797;49.782;19.054;2023-11-19T00:41:25;97626.06;;;0.19;100.00
79331;BME280;68797;49.782;19.054;2023-11-19T00:43:52;97621.69;;;0.18;100.00
79331;BME280;68797;49.782;19.054;2023-11-19T00:46:18;97626.06;;;0.21;100.00
79331;BME280;68797;49.782;19.054;2023-11-19T00:48:44;97630.41;;;0.20;100.00
79331;BME280;68797;49.782;19.054;2023-11-19T00:51:13;97641.81;;;0.25;100.00
79331;BME280;68797;49.782;19.054;2023-11-19T00:53:40;97627.91;;;0.26;100.00
79331;BME280;68797;49.782;19.054;2023-11-19T00:56:07;97625.31;;;0.28;100.00
79331;BME280;68797;49.782;19.054;2023-11-19T00:58:33;97622.50;;;0.14;100.00
79331;BME280;68797;49.782;19.054;2023-11-19T01:00:59;97612.91;;;0.12;100.00
79331;BME280;68797;49.782;19.054;2023-11-19T01:03:25;97610.38;;;0.16;100.00
79331;BME280;68797;49.782;19.054;2023-11-19T01:05:52;97617.38;;;0.22;100.00
79331;BME280;68797;49.782;19.054;2023-11-19T01:08:18;97608.47;;;0.06;100.00
79331;BME280;68797;49.782;19.054;2023-11-19T01:10:45;97619.75;;;0.04;99.51
79331;BME280;68797;49.782;19.054;2023-11-19T01:13:11;97617.81;;;-0.08;99.83
79331;BME280;68797;49.782;19.054;2023-11-19T01:15:37;97630.19;;;0.04;100.00
79331;BME280;68797;49.782;19.054;2023-11-19T01:18:04;97630.13;;;0.01;100.00
79331;BME280;68797;49.782;19.054;2023-11-19T01:20:32;97637.28;;;0.14;100.00
79331;BME280;68797;49.782;19.054;2023-11-19T01:23:00;97626.06;;;0.19;100.00
79331;BME280;68797;49.782;19.054;2023-11-19T01:25:26;97620.00;;;0.22;100.00
79331;BME280;68797;49.782;19.054;2023-11-19T01:27:52;97617.16;;;0.07;100.00
79331;BME280;68797;49.782;19.054;2023-11-19T01:30:19;97613.69;;;0.08;100.00
79331;BME280;68797;49.782;19.054;2023-11-19T01:32:45;97623.34;;;0.12;100.00
79331;BME280;68797;49.782;19.054;2023-11-19T01:35:12;97621.63;;;0.14;100.00
79331;BME280;68797;49.782;19.054;2023-11-19T01:37:38;97591.78;;;-0.05;100.00
79331;BME280;68797;49.782;19.054;2023-11-19T01:40:04;97581.34;;;-0.05;100.00
79331;BME280;68797;49.782;19.054;2023-11-19T01:42:41;97576.97;;;-0.09;100.00
79331;BME280;68797;49.782;19.054;2023-11-19T01:45:07;97582.88;;;-0.19;100.00
79331;BME280;68797;49.782;19.054;2023-11-19T01:47:35;97580.25;;;-0.21;100.00
79331;BME280;68797;49.782;19.054;2023-11-19T01:50:03;97575.09;;;-0.16;100.00
79331;BME280;68797;49.782;19.054;2023-11-19T01:52:34;97567.13;;;-0.27;100.00
79331;BME280;68797;49.782;19.054;2023-11-19T01:55:03;97546.19;;;-0.33;100.00
79331;BME280;68797;49.782;19.054;2023-11-19T01:57:30;97530.66;;;-0.24;100.00
79331;BME280;68797;49.782;19.054;2023-11-19T01:59:56;97535.09;;;-0.18;100.00
79331;BME280;68797;49.782;19.054;2023-11-19T02:02:23;97536.03;;;-0.12;100.00
79331;BME280;68797;49.782;19.054;2023-11-19T02:04:50;97537.75;;;-0.14;100.00
79331;BME280;68797;49.782;19.054;2023-11-19T02:07:16;97535.16;;;-0.14;100.00
79331;BME280;68797;49.782;19.054;2023-11-19T02:09:46;97543.81;;;-0.15;100.00
79331;BME280;68797;49.782;19.054;2023-11-19T02:12:13;97522.06;;;-0.17;100.00
79331;BME280;68797;49.782;19.054;2023-11-19T02:14:39;97502.06;;;-0.19;100.00
79331;BME280;68797;49.782;19.054;2023-11-19T02:17:27;97499.50;;;-0.15;100.00
79331;BME280;68797;49.782;19.054;2023-11-19T02:19:54;97487.31;;;-0.16;100.00
79331;BME280;68797;49.782;19.054;2023-11-19T02:22:20;97459.38;;;-0.26;100.00
79331;BME280;68797;49.782;19.054;2023-11-19T02:24:48;97458.50;;;-0.25;99.60
79331;BME280;68797;49.782;19.054;2023-11-19T02:27:25;97466.44;;;-0.19;98.98
79331;BME280;68797;49.782;19.054;2023-11-19T02:29:55;97461.91;;;-0.31;98.76
79331;BME280;68797;49.782;19.054;2023-11-19T02:32:21;97452.22;;;-0.41;98.21
79331;BME280;68797;49.782;19.054;2023-11-19T02:34:47;97447.19;;;-0.27;99.43
79331;BME280;68797;49.782;19.054;2023-11-19T02:37:14;97448.06;;;-0.26;98.82
79331;BME280;68797;49.782;19.054;2023-11-19T02:39:40;97431.38;;;-0.39;98.56
79331;BME280;68797;49.782;19.054;2023-11-19T02:42:07;97442.88;;;-0.23;99.19
79331;BME280;68797;49.782;19.054;2023-11-19T02:44:34;97421.88;;;-0.36;97.51
79331;BME280;68797;49.782;19.054;2023-11-19T02:47:00;97430.66;;;-0.29;98.52
79331;BME280;68797;49.782;19.054;2023-11-19T02:49:28;97415.66;;;-0.45;96.96
79331;BME280;68797;49.782;19.054;2023-11-19T02:51:54;97415.44;;;-0.61;97.33
79331;BME280;68797;49.782;19.054;2023-11-19T02:54:20;97386.63;;;-0.71;98.29
79331;BME280;68797;49.782;19.054;2023-11-19T02:56:52;97399.47;;;-0.85;99.75
79331;BME280;68797;49.782;19.054;2023-11-19T02:59:25;97407.50;;;-0.70;98.16
79331;BME280;68797;49.782;19.054;2023-11-19T03:02:05;97402.06;;;-0.85;99.99
79331;BME280;68797;49.782;19.054;2023-11-19T03:04:38;97417.81;;;-0.77;97.29
79331;BME280;68797;49.782;19.054;2023-11-19T03:07:06;97395.41;;;-0.66;97.83
79331;BME280;68797;49.782;19.054;2023-11-19T03:09:33;97386.75;;;-0.64;98.15
79331;BME280;68797;49.782;19.054;2023-11-19T03:12:01;97386.88;;;-0.54;98.31
79331;BME280;68797;49.782;19.054;2023-11-19T03:14:28;97394.69;;;-0.54;98.34
79331;BME280;68797;49.782;19.054;2023-11-19T03:16:55;97389.41;;;-0.59;98.11
79331;BME280;68797;49.782;19.054;2023-11-19T03:19:21;97397.31;;;-0.54;98.62
79331;BME280;68797;49.782;19.054;2023-11-19T03:21:47;97379.09;;;-0.53;98.94
79331;BME280;68797;49.782;19.054;2023-11-19T03:24:14;97365.31;;;-0.43;98.96
79331;BME280;68797;49.782;19.054;2023-11-19T03:26:41;97350.56;;;-0.41;99.07
79331;BME280;68797;49.782;19.054;2023-11-19T03:29:08;97358.56;;;-0.24;98.50
79331;BME280;68797;49.782;19.054;2023-11-19T03:31:35;97345.50;;;-0.28;99.14
79331;BME280;68797;49.782;19.054;2023-11-19T03:34:01;97348.00;;;-0.38;98.47
79331;BME280;68797;49.782;19.054;2023-11-19T03:36:32;97340.25;;;-0.33;99.62
79331;BME280;68797;49.782;19.054;2023-11-19T03:39:00;97347.25;;;-0.27;98.61
79331;BME280;68797;49.782;19.054;2023-11-19T03:41:26;97341.94;;;-0.34;99.05
79331;BME280;68797;49.782;19.054;2023-11-19T03:43:53;97330.69;;;-0.31;99.40
79331;BME280;68797;49.782;19.054;2023-11-19T03:46:19;97331.44;;;-0.43;99.25
79331;BME280;68797;49.782;19.054;2023-11-19T03:48:47;97352.28;;;-0.44;99.38
79331;BME280;68797;49.782;19.054;2023-11-19T03:51:13;97342.66;;;-0.48;98.91
79331;BME280;68797;49.782;19.054;2023-11-19T03:53:42;97333.13;;;-0.45;98.54
79331;BME280;68797;49.782;19.054;2023-11-19T03:56:10;97320.91;;;-0.52;99.17
79331;BME280;68797;49.782;19.054;2023-11-19T03:58:36;97322.66;;;-0.49;99.46
79331;BME280;68797;49.782;19.054;2023-11-19T04:01:05;97324.41;;;-0.48;99.05
79331;BME280;68797;49.782;19.054;2023-11-19T04:03:31;97312.25;;;-0.48;98.75
79331;BME280;68797;49.782;19.054;2023-11-19T04:05:58;97286.09;;;-0.55;99.31
79331;BME280;68797;49.782;19.054;2023-11-19T04:08:25;97284.53;;;-0.43;98.28
79331;BME280;68797;49.782;19.054;2023-11-19T04:10:51;97279.25;;;-0.46;98.99
79331;BME280;68797;49.782;19.054;2023-11-19T04:13:17;97281.84;;;-0.47;98.18
79331;BME280;68797;49.782;19.054;2023-11-19T04:15:43;97266.13;;;-0.55;98.46
79331;BME280;68797;49.782;19.054;2023-11-19T04:18:10;97276.59;;;-0.52;98.60
79331;BME280;68797;49.782;19.054;2023-11-19T04:20:36;97283.41;;;-0.63;98.23
79331;BME280;68797;49.782;19.054;2023-11-19T04:23:02;97270.41;;;-0.59;99.09
79331;BME280;68797;49.782;19.054;2023-11-19T04:25:28;97285.19;;;-0.57;98.13
79331;BME280;68797;49.782;19.054;2023-11-19T04:27:55;97299.91;;;-0.63;98.36
79331;BME280;68797;49.782;19.054;2023-11-19T04:30:21;97299.88;;;-0.66;97.81
79331;BME280;68797;49.782;19.054;2023-11-19T04:32:49;97297.28;;;-0.64;97.84
79331;BME280;68797;49.782;19.054;2023-11-19T04:35:16;97293.00;;;-0.59;98.87
79331;BME280;68797;49.782;19.054;2023-11-19T04:37:43;97289.59;;;-0.53;98.86
79331;BME280;68797;49.782;19.054;2023-11-19T04:40:09;97273.06;;;-0.55;98.65
79331;BME280;68797;49.782;19.054;2023-11-19T04:42:36;97264.53;;;-0.42;98.59
79331;BME280;68797;49.782;19.054;2023-11-19T04:45:02;97260.03;;;-0.55;98.13
79331;BME280;68797;49.782;19.054;2023-11-19T04:47:32;97273.13;;;-0.51;99.39
79331;BME280;68797;49.782;19.054;2023-11-19T04:49:58;97269.69;;;-0.45;98.79
79331;BME280;68797;49.782;19.054;2023-11-19T04:52:25;97263.69;;;-0.41;98.57
79331;BME280;68797;49.782;19.054;2023-11-19T04:54:51;97256.63;;;-0.51;98.56
79331;BME280;68797;49.782;19.054;2023-11-19T04:57:17;97254.91;;;-0.49;98.75
79331;BME280;68797;49.782;19.054;2023-11-19T04:59:43;97260.22;;;-0.39;98.84
79331;BME280;68797;49.782;19.054;2023-11-19T05:02:10;97244.47;;;-0.48;99.09
79331;BME280;68797;49.782;19.054;2023-11-19T05:04:36;97250.72;;;-0.34;98.41
79331;BME280;68797;49.782;19.054;2023-11-19T05:07:05;97255.00;;;-0.40;98.53
79331;BME280;68797;49.782;19.054;2023-11-19T05:09:32;97244.50;;;-0.46;98.70
79331;BME280;68797;49.782;19.054;2023-11-19T05:11:59;97254.84;;;-0.54;99.04
79331;BME280;68797;49.782;19.054;2023-11-19T05:14:25;97252.38;;;-0.43;99.49
79331;BME280;68797;49.782;19.054;2023-11-19T05:16:51;97250.69;;;-0.38;99.90
79331;BME280;68797;49.782;19.054;2023-11-19T05:19:17;97238.47;;;-0.44;99.20
79331;BME280;68797;49.782;19.054;2023-11-19T05:21:44;97226.34;;;-0.40;99.31
79331;BME280;68797;49.782;19.054;2023-11-19T05:24:10;97229.06;;;-0.26;98.82
79331;BME280;68797;49.782;19.054;2023-11-19T05:26:38;97232.53;;;-0.27;96.61
79331;BME280;68797;49.782;19.054;2023-11-19T05:29:04;97229.03;;;-0.33;98.61
79331;BME280;68797;49.782;19.054;2023-11-19T05:31:30;97215.06;;;-0.35;98.25
79331;BME280;68797;49.782;19.054;2023-11-19T05:33:57;97224.72;;;-0.27;98.14
79331;BME280;68797;49.782;19.054;2023-11-19T05:36:23;97214.19;;;-0.37;97.96
79331;BME280;68797;49.782;19.054;2023-11-19T05:38:49;97230.81;;;-0.24;97.06
79331;BME280;68797;49.782;19.054;2023-11-19T05:41:16;97237.78;;;-0.23;97.79
79331;BME280;68797;49.782;19.054;2023-11-19T05:43:42;97234.28;;;-0.25;97.09
79331;BME280;68797;49.782;19.054;2023-11-19T05:46:08;97229.06;;;-0.26;96.91
79331;BME280;68797;49.782;19.054;2023-11-19T05:48:34;97218.44;;;-0.46;97.02
79331;BME280;68797;49.782;19.054;2023-11-19T05:51:01;97217.72;;;-0.33;96.90
79331;BME280;68797;49.782;19.054;2023-11-19T05:53:27;97213.34;;;-0.36;96.47
79331;BME280;68797;49.782;19.054;2023-11-19T05:55:53;97204.75;;;-0.25;96.00
79331;BME280;68797;49.782;19.054;2023-11-19T05:58:26;97207.34;;;-0.24;96.84
79331;BME280;68797;49.782;19.054;2023-11-19T06:00:55;97217.00;;;-0.18;96.92
79331;BME280;68797;49.782;19.054;2023-11-19T06:03:21;97218.66;;;-0.23;96.88
79331;BME280;68797;49.782;19.054;2023-11-19T06:05:49;97236.16;;;-0.13;97.39
79331;BME280;68797;49.782;19.054;2023-11-19T06:08:15;97235.22;;;-0.21;96.13
79331;BME280;68797;49.782;19.054;2023-11-19T06:10:43;97199.25;;;-0.54;97.73
79331;BME280;68797;49.782;19.054;2023-11-19T06:13:12;97207.16;;;-0.45;98.66
79331;BME280;68797;49.782;19.054;2023-11-19T06:15:44;97202.91;;;-0.37;97.78
79331;BME280;68797;49.782;19.054;2023-11-19T06:18:10;97205.50;;;-0.39;98.26
79331;BME280;68797;49.782;19.054;2023-11-19T06:20:38;97206.41;;;-0.34;98.59
79331;BME280;68797;49.782;19.054;2023-11-19T06:23:04;97203.94;;;-0.21;97.37
79331;BME280;68797;49.782;19.054;2023-11-19T06:25:31;97193.44;;;-0.27;97.67
79331;BME280;68797;49.782;19.054;2023-11-19T06:27:57;97192.38;;;-0.45;98.56
79331;BME280;68797;49.782;19.054;2023-11-19T06:30:24;97162.78;;;-0.54;99.42
79331;BME280;68797;49.782;19.054;2023-11-19T06:32:50;97174.22;;;-0.36;98.69
79331;BME280;68797;49.782;19.054;2023-11-19T06:35:17;97146.38;;;-0.43;96.40
79331;BME280;68797;49.782;19.054;2023-11-19T06:37:43;97155.06;;;-0.44;98.78
79331;BME280;68797;49.782;19.054;2023-11-19T06:40:10;97146.44;;;-0.37;98.25
79331;BME280;68797;49.782;19.054;2023-11-19T06:42:38;97142.91;;;-0.43;99.35
79331;BME280;68797;49.782;19.054;2023-11-19T06:45:06;97138.47;;;-0.52;98.74
79331;BME280;68797;49.782;19.054;2023-11-19T06:47:32;97149.13;;;-0.26;97.92
79331;BME280;68797;49.782;19.054;2023-11-19T06:49:58;97130.88;;;-0.29;98.60
79331;BME280;68797;49.782;19.054;2023-11-19T06:52:24;97136.19;;;-0.15;97.05
79331;BME280;68797;49.782;19.054;2023-11-19T06:54:51;97126.63;;;-0.16;96.78
79331;BME280;68797;49.782;19.054;2023-11-19T06:57:17;97129.22;;;-0.18;98.03
79331;BME280;68797;49.782;19.054;2023-11-19T06:59:43;97139.66;;;-0.15;97.33
79331;BME280;68797;49.782;19.054;2023-11-19T07:02:10;97138.88;;;-0.05;96.27
79331;BME280;68797;49.782;19.054;2023-11-19T07:04:36;97129.31;;;-0.01;96.24
79331;BME280;68797;49.782;19.054;2023-11-19T07:07:02;97139.81;;;0.08;96.15
79331;BME280;68797;49.782;19.054;2023-11-19T07:09:29;97125.09;;;0.16;96.98
79331;BME280;68797;49.782;19.054;2023-11-19T07:11:55;97128.66;;;0.31;97.32
79331;BME280;68797;49.782;19.054;2023-11-19T07:14:24;97112.16;;;0.32;96.07
79331;BME280;68797;49.782;19.054;2023-11-19T07:16:53;97088.66;;;0.32;95.48
79331;BME280;68797;49.782;19.054;2023-11-19T07:20:27;97117.53;;;0.57;96.04
79331;BME280;68797;49.782;19.054;2023-11-19T07:23:39;97095.72;;;0.54;95.32
79331;BME280;68797;49.782;19.054;2023-11-19T07:26:13;97122.81;;;0.73;93.69
79331;BME280;68797;49.782;19.054;2023-11-19T07:28:39;97134.13;;;0.75;93.26
79331;BME280;68797;49.782;19.054;2023-11-19T07:31:06;97135.03;;;0.87;90.89
79331;BME280;68797;49.782;19.054;2023-11-19T07:33:34;97127.19;;;0.78;90.80
79331;BME280;68797;49.782;19.054;2023-11-19T07:36:01;97156.78;;;0.82;92.60
79331;BME280;68797;49.782;19.054;2023-11-19T07:38:27;97142.00;;;0.87;90.85
79331;BME280;68797;49.782;19.054;2023-11-19T07:40:54;97134.16;;;0.85;92.58
79331;BME280;68797;49.782;19.054;2023-11-19T07:43:20;97118.50;;;0.87;91.76
79331;BME280;68797;49.782;19.054;2023-11-19T07:45:46;97113.31;;;0.99;92.33
79331;BME280;68797;49.782;19.054;2023-11-19T07:48:12;97096.78;;;0.96;93.26
79331;BME280;68797;49.782;19.054;2023-11-19T07:50:39;97091.56;;;1.05;95.05
79331;BME280;68797;49.782;19.054;2023-11-19T07:53:07;97077.59;;;1.00;96.14
79331;BME280;68797;49.782;19.054;2023-11-19T07:55:33;97095.09;;;1.14;94.67
79331;BME280;68797;49.782;19.054;2023-11-19T07:58:00;97087.25;;;1.27;94.13
79331;BME280;68797;49.782;19.054;2023-11-19T08:00:27;97083.81;;;1.34;93.16
79331;BME280;68797;49.782;19.054;2023-11-19T08:02:53;97082.91;;;1.32;92.06
79331;BME280;68797;49.782;19.054;2023-11-19T08:05:19;97072.47;;;1.35;94.55
79331;BME280;68797;49.782;19.054;2023-11-19T08:07:45;97060.25;;;1.40;93.55
79331;BME280;68797;49.782;19.054;2023-11-19T08:10:12;97050.69;;;1.39;94.12
79331;BME280;68797;49.782;19.054;2023-11-19T08:12:38;97049.81;;;1.46;94.50
79331;BME280;68797;49.782;19.054;2023-11-19T08:15:05;97049.81;;;1.63;93.89
79331;BME280;68797;49.782;19.054;2023-11-19T08:17:31;97038.50;;;1.68;94.82
79331;BME280;68797;49.782;19.054;2023-11-19T08:19:57;97037.59;;;1.72;92.01
79331;BME280;68797;49.782;19.054;2023-11-19T08:22:24;97046.31;;;1.82;92.46
79331;BME280;68797;49.782;19.054;2023-11-19T08:24:51;97032.34;;;1.88;89.79
79331;BME280;68797;49.782;19.054;2023-11-19T08:27:17;97041.91;;;1.98;90.09
79331;BME280;68797;49.782;19.054;2023-11-19T08:29:43;97048.03;;;1.97;92.45
79331;BME280;68797;49.782;19.054;2023-11-19T08:32:09;97055.88;;;1.98;89.00
79331;BME280;68797;49.782;19.054;2023-11-19T08:34:37;97061.09;;;1.98;88.87
79331;BME280;68797;49.782;19.054;2023-11-19T08:37:03;97052.38;;;1.96;89.56
79331;BME280;68797;49.782;19.054;2023-11-19T08:39:30;97030.59;;;1.93;89.35
79331;BME280;68797;49.782;19.054;2023-11-19T08:41:56;97031.47;;;1.86;87.01
79331;BME280;68797;49.782;19.054;2023-11-19T08:44:23;97025.34;;;1.97;88.11
79331;BME280;68797;49.782;19.054;2023-11-19T08:46:49;97022.75;;;1.94;86.50
79331;BME280;68797;49.782;19.054;2023-11-19T08:49:15;97028.88;;;1.84;87.19
79331;BME280;68797;49.782;19.054;2023-11-19T08:51:41;97033.22;;;1.84;87.54
79331;BME280;68797;49.782;19.054;2023-11-19T08:54:08;97018.41;;;1.73;85.70
79331;BME280;68797;49.782;19.054;2023-11-19T08:56:34;97031.50;;;1.81;87.53
79331;BME280;68797;49.782;19.054;2023-11-19T08:59:01;97022.75;;;1.85;84.91
79331;BME280;68797;49.782;19.054;2023-11-19T09:01:27;97011.44;;;1.83;87.15
79331;BME280;68797;49.782;19.054;2023-11-19T09:03:54;97001.88;;;1.79;88.68
79331;BME280;68797;49.782;19.054;2023-11-19T09:06:21;97000.09;;;1.84;90.38
79331;BME280;68797;49.782;19.054;2023-11-19T09:08:47;97000.09;;;1.89;90.55
79331;BME280;68797;49.782;19.054;2023-11-19T09:11:14;96993.97;;;1.93;92.62
79331;BME280;68797;49.782;19.054;2023-11-19T09:13:40;96982.66;;;1.85;93.33
79331;BME280;68797;49.782;19.054;2023-11-19T09:16:06;96977.34;;;2.08;93.97
79331;BME280;68797;49.782;19.054;2023-11-19T09:18:33;96966.94;;;2.01;95.46
79331;BME280;68797;49.782;19.054;2023-11-19T09:20:59;96962.56;;;2.00;91.83
79331;BME280;68797;49.782;19.054;2023-11-19T09:23:25;96963.38;;;2.10;89.33
79331;BME280;68797;49.782;19.054;2023-11-19T09:25:53;96959.84;;;2.20;89.28
79331;BME280;68797;49.782;19.054;2023-11-19T09:28:20;96941.56;;;2.22;90.32
79331;BME280;68797;49.782;19.054;2023-11-19T09:30:46;96946.78;;;2.25;91.34
79331;BME280;68797;49.782;19.054;2023-11-19T09:33:12;96936.28;;;2.29;92.17
79331;BME280;68797;49.782;19.054;2023-11-19T09:35:38;96940.63;;;2.35;84.46
79331;BME280;68797;49.782;19.054;2023-11-19T09:38:05;96932.84;;;2.17;87.77
79331;BME280;68797;49.782;19.054;2023-11-19T09:40:32;96938.00;;;2.32;89.47
79331;BME280;68797;49.782;19.054;2023-11-19T09:42:58;96926.63;;;2.38;87.42
79331;BME280;68797;49.782;19.054;2023-11-19T09:45:27;96917.00;;;2.43;84.97
79331;BME280;68797;49.782;19.054;2023-11-19T09:47:55;96917.88;;;2.46;85.43
79331;BME280;68797;49.782;19.054;2023-11-19T09:50:23;96901.22;;;2.55;87.47
79331;BME280;68797;49.782;19.054;2023-11-19T09:52:49;96895.16;;;2.50;87.45
79331;BME280;68797;49.782;19.054;2023-11-19T09:55:16;96896.78;;;2.63;86.90
79331;BME280;68797;49.782;19.054;2023-11-19T09:57:43;96896.78;;;2.65;85.23
79331;BME280;68797;49.782;19.054;2023-11-19T10:00:10;96893.25;;;2.73;87.10
79331;BME280;68797;49.782;19.054;2023-11-19T10:02:38;96881.84;;;2.80;86.55
79331;BME280;68797;49.782;19.054;2023-11-19T10:05:09;96872.19;;;2.84;83.36
79331;BME280;68797;49.782;19.054;2023-11-19T10:07:36;96863.44;;;2.89;84.33
79331;BME280;68797;49.782;19.054;2023-11-19T10:10:03;96861.56;;;3.04;85.16
79331;BME280;68797;49.782;19.054;2023-11-19T10:12:32;96849.41;;;2.94;87.15
79331;BME280;68797;49.782;19.054;2023-11-19T10:14:59;96851.09;;;2.99;83.96
79331;BME280;68797;49.782;19.054;2023-11-19T10:17:28;96845.09;;;2.86;84.63
79331;BME280;68797;49.782;19.054;2023-11-19T10:19:55;96837.25;;;2.86;86.79
79331;BME280;68797;49.782;19.054;2023-11-19T10:22:23;96824.22;;;2.76;88.03
79331;BME280;68797;49.782;19.054;2023-11-19T10:24:50;96812.94;;;2.71;87.92
79331;BME280;68797;49.782;19.054;2023-11-19T10:27:16;96810.47;;;2.51;88.24
79331;BME280;68797;49.782;19.054;2023-11-19T10:29:46;96796.47;;;2.58;86.61
79331;BME280;68797;49.782;19.054;2023-11-19T10:32:13;96788.53;;;2.67;85.61
79331;BME280;68797;49.782;19.054;2023-11-19T10:34:43;96784.19;;;2.66;86.75
79331;BME280;68797;49.782;19.054;2023-11-19T10:37:27;96782.41;;;2.68;88.43
79331;BME280;68797;49.782;19.054;2023-11-19T10:39:54;96772.75;;;2.73;88.64
79331;BME280;68797;49.782;19.054;2023-11-19T10:42:22;96785.00;;;2.71;88.62
79331;BME280;68797;49.782;19.054;2023-11-19T10:44:48;96778.00;;;2.72;90.63
79331;BME280;68797;49.782;19.054;2023-11-19T10:47:15;96773.66;;;2.71;91.07
79331;BME280;68797;49.782;19.054;2023-11-19T10:49:44;96751.81;;;2.70;90.59
79331;BME280;68797;49.782;19.054;2023-11-19T10:52:17;96775.41;;;2.69;91.96
79331;BME280;68797;49.782;19.054;2023-11-19T10:54:50;96769.22;;;2.77;87.68
79331;BME280;68797;49.782;19.054;2023-11-19T10:57:20;96749.09;;;2.81;89.64
79331;BME280;68797;49.782;19.054;2023-11-19T10:59:49;96756.13;;;2.79;91.79
79331;BME280;68797;49.782;19.054;2023-11-19T11:02:19;96763.13;;;2.75;90.31
79331;BME280;68797;49.782;19.054;2023-11-19T11:04:49;96736.13;;;2.66;90.84
79331;BME280;68797;49.782;19.054;2023-11-19T11:07:18;96750.06;;;2.71;92.44
79331;BME280;68797;49.782;19.054;2023-11-19T11:09:47;96741.38;;;2.64;92.86
79331;BME280;68797;49.782;19.054;2023-11-19T11:12:15;96742.28;;;2.63;92.81
79331;BME280;68797;49.782;19.054;2023-11-19T11:14:44;96746.69;;;2.58;94.45
79331;BME280;68797;49.782;19.054;2023-11-19T11:17:12;96751.06;;;2.54;96.27
79331;BME280;68797;49.782;19.054;2023-11-19T11:19:43;96747.59;;;2.54;98.74
79331;BME280;68797;49.782;19.054;2023-11-19T11:22:10;96749.22;;;2.66;96.47
79331;BME280;68797;49.782;19.054;2023-11-19T11:24:48;96749.31;;;2.59;99.40
79331;BME280;68797;49.782;19.054;2023-11-19T11:27:43;96746.66;;;2.62;98.83
79331;BME280;68797;49.782;19.054;2023-11-19T11:36:19;96710.94;;;2.52;97.80
79331;BME280;68797;49.782;19.054;2023-11-19T11:38:48;96716.19;;;2.52;100.00
79331;BME280;68797;49.782;19.054;2023-11-19T11:41:21;96697.91;;;2.48;100.00
79331;BME280;68797;49.782;19.054;2023-11-19T11:43:53;96704.75;;;2.62;100.00
79331;BME280;68797;49.782;19.054;2023-11-19T11:49:09;96682.03;;;2.66;99.82
79331;BME280;68797;49.782;19.054;2023-11-19T11:57:08;96669.91;;;2.57;99.31
79331;BME280;68797;49.782;19.054;2023-11-19T12:02:08;96682.88;;;2.68;100.00
79331;BME280;68797;49.782;19.054;2023-11-19T12:04:35;96667.03;;;2.80;97.95
79331;BME280;68797;49.782;19.054;2023-11-19T12:07:17;96667.84;;;2.84;99.61
79331;BME280;68797;49.782;19.054;2023-11-19T12:09:49;96657.38;;;2.84;99.01
79331;BME280;68797;49.782;19.054;2023-11-19T12:12:18;96652.06;;;2.91;99.39
79331;BME280;68797;49.782;19.054;2023-11-19T12:17:48;96623.34;;;2.82;98.86
79331;BME280;68797;49.782;19.054;2023-11-19T12:20:16;96630.38;;;2.79;99.62
79331;BME280;68797;49.782;19.054;2023-11-19T12:22:44;96626.91;;;2.75;99.12
79331;BME280;68797;49.782;19.054;2023-11-19T12:25:12;96627.84;;;2.71;100.00
79331;BME280;68797;49.782;19.054;2023-11-19T12:27:44;96609.41;;;2.80;98.41
79331;BME280;68797;49.782;19.054;2023-11-19T12:30:11;96603.28;;;2.81;99.61
79331;BME280;68797;49.782;19.054;2023-11-19T12:32:42;96617.28;;;2.76;99.78
79331;BME280;68797;49.782;19.054;2023-11-19T12:35:09;96602.41;;;2.81;99.52
79331;BME280;68797;49.782;19.054;2023-11-19T12:37:43;96594.53;;;2.81;99.83
79331;BME280;68797;49.782;19.054;2023-11-19T12:40:21;96598.75;;;2.94;100.00
79331;BME280;68797;49.782;19.054;2023-11-19T12:42:48;96582.16;;;2.94;100.00
79331;BME280;68797;49.782;19.054;2023-11-19T12:45:16;96588.84;;;3.16;100.00
79331;BME280;68797;49.782;19.054;2023-11-19T12:47:43;96588.06;;;3.11;98.72
79331;BME280;68797;49.782;19.054;2023-11-19T12:50:10;96589.81;;;3.09;100.00
79331;BME280;68797;49.782;19.054;2023-11-19T12:52:37;96589.75;;;3.13;100.00
79331;BME280;68797;49.782;19.054;2023-11-19T12:55:04;96560.78;;;3.21;98.82
79331;BME280;68797;49.782;19.054;2023-11-19T12:57:36;96575.72;;;3.16;100.00
79331;BME280;68797;49.782;19.054;2023-11-19T13:00:03;96563.41;;;3.23;99.59
79331;BME280;68797;49.782;19.054;2023-11-19T13:03:02;96574.66;;;3.29;99.73
79331;BME280;68797;49.782;19.054;2023-11-19T13:05:31;96571.38;;;3.15;100.00
79331;BME280;68797;49.782;19.054;2023-11-19T13:08:06;96564.50;;;3.06;100.00
79331;BME280;68797;49.782;19.054;2023-11-19T13:10:33;96577.69;;;3.02;100.00
79331;BME280;68797;49.782;19.054;2023-11-19T13:13:07;96582.22;;;2.89;100.00
79331;BME280;68797;49.782;19.054;2023-11-19T13:15:36;96570.97;;;2.81;100.00
79331;BME280;68797;49.782;19.054;2023-11-19T13:18:03;96580.53;;;2.83;100.00